createdAt,value
2019-05-06T00:01:09.986Z,80.96
2019-05-06T00:03:36.719Z,81.54
2019-05-06T00:06:04.003Z,79.94
2019-05-06T00:08:30.229Z,80.43
2019-05-06T00:10:56.973Z,81.59
2019-05-06T00:13:24.206Z,81.62
2019-05-06T00:15:50.467Z,79.75
2019-05-06T00:18:17.198Z,80.86
2019-05-06T00:20:44.082Z,81.04
2019-05-06T00:23:14.738Z,81.25
2019-05-06T00:26:04.013Z,82.08
2019-05-06T00:28:36.026Z,81.62
2019-05-06T00:31:12.175Z,81.72
2019-05-06T00:33:29.514Z,82.60
2019-05-06T00:35:56.258Z,81.96
2019-05-06T00:38:24.622Z,82.27
2019-05-06T00:40:50.635Z,82.91
2019-05-06T00:43:17.382Z,82.83
2019-05-06T00:45:44.349Z,83.47
2019-05-06T00:48:10.894Z,83.83
2019-05-06T00:50:37.650Z,83.92
2019-05-06T00:53:04.675Z,82.93
2019-05-06T00:55:31.238Z,82.40
2019-05-06T00:57:57.991Z,82.53
2019-05-06T01:00:27.945Z,82.97
2019-05-06T01:02:54.701Z,83.30
2019-05-06T01:05:21.449Z,84.21
2019-05-06T01:07:48.199Z,84.88
2019-05-06T01:10:14.931Z,84.38
2019-05-06T01:12:43.530Z,84.79
2019-05-06T01:15:14.259Z,83.00
2019-05-06T01:17:39.110Z,83.28
2019-05-06T01:20:05.835Z,83.57
2019-05-06T01:22:34.204Z,82.73
2019-05-06T01:24:59.388Z,82.65
2019-05-06T01:27:26.122Z,81.76
2019-05-06T01:29:54.809Z,80.49
2019-05-06T01:32:19.601Z,80.34
2019-05-06T01:34:46.337Z,80.87
2019-05-06T01:37:14.250Z,81.44
2019-05-06T01:39:47.070Z,80.39
2019-05-06T01:42:19.725Z,80.03
2019-05-06T01:44:46.446Z,81.05
2019-05-06T01:47:14.522Z,79.92
2019-05-06T01:49:40.158Z,80.68
2019-05-06T01:52:06.937Z,81.09
2019-05-06T01:54:34.406Z,81.46
2019-05-06T01:57:00.390Z,80.18
2019-05-06T01:59:27.154Z,80.66
2019-05-06T02:02:00.490Z,81.53
2019-05-06T02:04:20.681Z,80.39
2019-05-06T02:06:47.421Z,81.76
2019-05-06T02:09:14.322Z,79.79
2019-05-06T02:11:41.053Z,78.13
2019-05-06T02:14:07.800Z,79.83
2019-05-06T02:16:34.585Z,77.73
2019-05-06T02:19:01.357Z,78.94
2019-05-06T02:21:33.882Z,79.02
2019-05-06T02:24:00.733Z,80.56
2019-05-06T02:26:27.998Z,79.34
2019-05-06T02:28:54.822Z,79.25
2019-05-06T02:31:27.503Z,79.29
2019-05-06T02:34:01.047Z,79.24
2019-05-06T02:36:35.486Z,78.92
2019-05-06T02:39:03.600Z,80.80
2019-05-06T02:41:28.999Z,81.62
2019-05-06T02:43:55.732Z,80.77
2019-05-06T02:46:23.817Z,79.99
2019-05-06T02:49:03.999Z,80.35
2019-05-06T02:51:33.295Z,80.12
2019-05-06T02:53:57.881Z,79.94
2019-05-06T02:56:24.623Z,79.79
2019-05-06T02:58:53.472Z,79.78
2019-05-06T03:01:18.156Z,79.33
2019-05-06T03:03:44.875Z,80.26
2019-05-06T03:06:13.167Z,79.81
2019-05-06T03:08:38.375Z,78.96
2019-05-06T03:11:05.134Z,79.94
2019-05-06T03:13:33.946Z,79.82
2019-05-06T03:15:58.600Z,80.21
2019-05-06T03:18:25.359Z,82.03
2019-05-06T03:20:57.860Z,82.52
2019-05-06T03:23:24.610Z,83.09
2019-05-06T03:25:53.211Z,83.96
2019-05-06T03:28:18.082Z,84.35
2019-05-06T03:30:46.043Z,83.71
2019-05-06T03:33:37.340Z,84.85
2019-05-06T03:35:52.200Z,82.15
2019-05-06T03:38:05.112Z,81.57
2019-05-06T03:40:36.114Z,82.70
2019-05-06T03:42:58.591Z,83.12
2019-05-06T03:45:33.450Z,83.48
2019-05-06T03:48:05.754Z,81.82
2019-05-06T03:50:29.592Z,82.02
2019-05-06T03:52:56.663Z,82.24
2019-05-06T03:55:23.635Z,83.14
2019-05-06T03:57:53.662Z,83.62
2019-05-06T04:00:17.216Z,84.28
2019-05-06T04:02:43.978Z,86.02
2019-05-06T04:05:13.240Z,85.79
2019-05-06T04:07:37.539Z,85.40
2019-05-06T04:10:16.850Z,84.70
2019-05-06T04:12:43.649Z,84.63
2019-05-06T04:15:10.368Z,84.86
2019-05-06T04:17:43.812Z,85.15
2019-05-06T04:20:16.910Z,84.75
2019-05-06T04:22:54.850Z,85.49
2019-05-06T04:25:28.512Z,86.74
2019-05-06T04:27:57.333Z,86.33
2019-05-06T04:30:24.524Z,86.27
2019-05-06T04:32:53.135Z,85.00
2019-05-06T04:35:17.552Z,85.47
2019-05-06T04:37:44.279Z,84.58
2019-05-06T04:40:13.043Z,83.72
2019-05-06T04:42:37.777Z,83.33
2019-05-06T04:45:04.969Z,83.32
2019-05-06T04:47:32.745Z,83.14
2019-05-06T04:49:58.322Z,80.88
2019-05-06T04:52:26.092Z,81.86
2019-05-06T04:54:53.435Z,81.93
2019-05-06T04:57:18.544Z,81.96
2019-05-06T04:59:45.307Z,82.67
2019-05-06T05:02:13.322Z,81.26
2019-05-06T05:04:38.865Z,80.44
2019-05-06T05:07:05.586Z,82.11
2019-05-06T05:09:32.629Z,83.40
2019-05-06T05:12:03.283Z,83.28
2019-05-06T05:14:37.546Z,82.74
2019-05-06T05:17:19.162Z,82.00
2019-05-06T05:19:45.934Z,82.08
2019-05-06T05:22:12.735Z,80.77
2019-05-06T05:24:39.481Z,80.54
2019-05-06T05:27:06.249Z,79.89
2019-05-06T05:29:33.002Z,79.30
2019-05-06T05:31:59.738Z,79.33
2019-05-06T05:34:37.212Z,77.00
2019-05-06T05:36:53.199Z,77.93
2019-05-06T05:39:21.810Z,78.33
2019-05-06T05:41:46.674Z,78.84
2019-05-06T05:44:34.104Z,77.78
2019-05-06T05:47:03.261Z,78.23
2019-05-06T05:49:32.483Z,78.58
2019-05-06T05:51:58.882Z,79.22
2019-05-06T05:54:25.627Z,80.02
2019-05-06T05:56:53.026Z,79.06
2019-05-06T05:59:19.439Z,78.71
2019-05-06T06:01:46.181Z,77.51
2019-05-06T06:04:13.116Z,77.49
2019-05-06T06:06:39.771Z,76.67
2019-05-06T06:09:06.717Z,74.71
2019-05-06T06:11:39.382Z,73.14
2019-05-06T06:14:25.750Z,72.50
2019-05-06T06:17:15.110Z,67.91
2019-05-06T06:19:47.037Z,67.24
2019-05-06T06:22:16.202Z,68.64
2019-05-06T06:24:43.144Z,68.38
2019-05-06T06:27:09.898Z,68.62
2019-05-06T06:29:36.646Z,68.73
2019-05-06T06:32:25.858Z,67.54
2019-05-06T06:35:08.352Z,69.15
2019-05-06T06:37:33.056Z,69.87
2019-05-06T06:39:58.493Z,67.75
2019-05-06T06:42:25.238Z,67.63
2019-05-06T06:44:52.209Z,68.00
2019-05-06T06:47:18.723Z,67.10
2019-05-06T06:49:45.470Z,66.97
2019-05-06T06:52:14.727Z,69.57
2019-05-06T06:54:38.918Z,69.84
2019-05-06T06:57:13.559Z,69.76
2019-05-06T06:59:46.858Z,68.28
2019-05-06T07:02:35.056Z,68.86
2019-05-06T07:05:07.066Z,66.79
2019-05-06T07:07:43.716Z,66.78
2019-05-06T07:10:02.704Z,66.97
2019-05-06T07:12:27.352Z,66.54
2019-05-06T07:14:59.433Z,64.02
2019-05-06T07:17:26.182Z,65.32
2019-05-06T07:19:53.785Z,65.11
2019-05-06T07:22:20.540Z,63.81
2019-05-06T07:24:47.262Z,64.55
2019-05-06T07:27:17.662Z,64.21
2019-05-06T07:29:48.348Z,65.80
2019-05-06T07:32:12.299Z,64.95
2019-05-06T07:34:37.887Z,62.61
2019-05-06T07:37:04.620Z,63.84
2019-05-06T07:39:33.376Z,63.59
2019-05-06T07:41:59.323Z,66.75
2019-05-06T07:44:33.445Z,62.92
2019-05-06T07:47:06.622Z,62.98
2019-05-06T07:49:33.351Z,63.99
2019-05-06T07:52:02.723Z,62.50
2019-05-06T07:54:26.826Z,60.83
2019-05-06T07:56:53.574Z,62.06
2019-05-06T07:59:22.549Z,59.83
2019-05-06T08:01:47.035Z,59.28
2019-05-06T08:04:13.758Z,58.16
2019-05-06T08:06:42.481Z,59.01
2019-05-06T08:09:07.803Z,59.71
2019-05-06T08:11:34.536Z,58.93
2019-05-06T08:14:02.181Z,56.54
2019-05-06T08:16:28.199Z,57.25
2019-05-06T08:18:54.950Z,58.90
2019-05-06T08:21:22.388Z,56.93
2019-05-06T08:23:49.633Z,56.08
2019-05-06T08:26:17.865Z,54.89
2019-05-06T08:28:44.536Z,54.01
2019-05-06T08:31:10.047Z,51.81
2019-05-06T08:33:36.826Z,52.51
2019-05-06T08:36:11.500Z,53.67
2019-05-06T08:38:53.082Z,53.39
2019-05-06T08:41:17.578Z,54.50
2019-05-06T08:43:44.325Z,55.64
2019-05-06T08:46:12.557Z,50.37
2019-05-06T08:48:37.802Z,50.41
2019-05-06T08:51:12.703Z,49.99
2019-05-06T08:53:44.547Z,52.85
2019-05-06T08:56:16.429Z,49.19
2019-05-06T08:58:45.503Z,49.13
2019-05-06T09:01:14.380Z,48.17
2019-05-06T09:03:42.243Z,48.38
2019-05-06T09:06:07.978Z,50.06
2019-05-06T09:08:34.724Z,53.48
2019-05-06T09:11:03.106Z,53.06
2019-05-06T09:13:28.339Z,51.74
2019-05-06T09:15:55.062Z,52.39
2019-05-06T09:18:23.881Z,52.53
2019-05-06T09:20:48.510Z,52.38
2019-05-06T09:23:15.242Z,52.02
2019-05-06T09:25:42.452Z,50.17
2019-05-06T09:28:13.938Z,50.32
2019-05-06T09:30:52.548Z,49.80
2019-05-06T09:33:22.536Z,48.76
2019-05-06T09:35:47.938Z,50.25
2019-05-06T09:38:14.662Z,49.44
2019-05-06T09:40:43.301Z,55.01
2019-05-06T09:43:08.134Z,54.31
2019-05-06T09:45:34.906Z,61.95
2019-05-06T09:48:12.891Z,64.06
2019-05-06T09:50:45.476Z,63.62
2019-05-06T09:53:12.967Z,65.29
2019-05-06T09:55:43.144Z,63.43
2019-05-06T09:58:12.186Z,60.51
2019-05-06T10:00:39.281Z,57.59
2019-05-06T10:03:06.009Z,57.53
2019-05-06T10:05:32.740Z,57.86
2019-05-06T10:07:59.463Z,55.67
2019-05-06T10:10:26.205Z,52.98
2019-05-06T10:12:53.116Z,53.60
2019-05-06T10:15:19.679Z,54.67
2019-05-06T10:17:47.067Z,55.19
2019-05-06T10:20:13.847Z,53.73
2019-05-06T10:22:42.919Z,53.07
2019-05-06T10:25:07.364Z,51.07
2019-05-06T10:27:34.094Z,51.97
2019-05-06T10:30:04.079Z,48.04
2019-05-06T10:32:43.702Z,50.37
2019-05-06T10:35:10.470Z,50.01
2019-05-06T10:37:43.498Z,48.89
2019-05-06T10:40:13.520Z,50.06
2019-05-06T10:42:44.455Z,51.11
2019-05-06T10:45:18.229Z,48.22
2019-05-06T10:47:44.954Z,48.36
2019-05-06T10:50:12.573Z,47.76
2019-05-06T10:52:44.146Z,46.52
2019-05-06T10:55:12.313Z,48.54
2019-05-06T10:57:43.100Z,49.75
2019-05-06T11:00:08.322Z,48.59
2019-05-06T11:02:57.679Z,49.61
2019-05-06T11:05:24.420Z,52.06
2019-05-06T11:07:52.167Z,53.32
2019-05-06T11:10:26.907Z,50.00
2019-05-06T11:12:44.607Z,51.40
2019-05-06T11:15:12.419Z,52.32
2019-05-06T11:17:38.075Z,52.58
2019-05-06T11:20:06.883Z,53.18
2019-05-06T11:22:32.743Z,52.84
2019-05-06T11:24:58.387Z,55.62
2019-05-06T11:27:31.858Z,52.78
2019-05-06T11:29:53.053Z,55.52
2019-05-06T11:32:28.734Z,53.80
2019-05-06T11:35:00.055Z,52.94
2019-05-06T11:37:50.534Z,50.84
2019-05-06T11:40:16.631Z,51.49
2019-05-06T11:42:39.910Z,52.71
2019-05-06T11:45:06.694Z,56.47
2019-05-06T11:47:33.441Z,51.61
2019-05-06T11:50:02.489Z,49.35
2019-05-06T11:52:26.982Z,46.96
2019-05-06T11:54:53.678Z,45.94
2019-05-06T11:57:20.442Z,45.85
2019-05-06T11:59:48.010Z,40.61
2019-05-06T12:02:16.543Z,44.58
2019-05-06T12:04:43.272Z,46.37
2019-05-06T12:07:11.637Z,44.65
2019-05-06T12:09:36.739Z,42.84
2019-05-06T12:12:03.559Z,42.11
2019-05-06T12:14:30.270Z,44.90
2019-05-06T12:16:57.022Z,45.37
2019-05-06T12:19:23.751Z,46.95
2019-05-06T12:21:50.826Z,45.93
2019-05-06T12:24:17.564Z,46.42
2019-05-06T12:26:44.306Z,50.43
2019-05-06T12:29:12.689Z,47.95
2019-05-06T12:31:37.786Z,45.58
2019-05-06T12:34:04.517Z,45.74
2019-05-06T12:36:32.549Z,46.38
2019-05-06T12:39:06.485Z,46.73
2019-05-06T12:41:33.330Z,48.97
2019-05-06T12:43:57.701Z,49.52
2019-05-06T12:46:28.922Z,47.99
2019-05-06T12:48:55.646Z,47.10
2019-05-06T12:51:22.823Z,47.36
2019-05-06T12:53:49.174Z,48.38
2019-05-06T12:56:15.908Z,47.76
2019-05-06T12:58:44.258Z,48.22
2019-05-06T13:01:09.415Z,48.90
2019-05-06T13:03:36.162Z,48.37
2019-05-06T13:06:07.307Z,45.85
2019-05-06T13:08:49.874Z,47.92
2019-05-06T13:10:56.458Z,44.24
2019-05-06T13:13:23.214Z,47.88
2019-05-06T13:15:52.599Z,43.72
2019-05-06T13:18:16.703Z,45.96
2019-05-06T13:20:49.907Z,43.03
2019-05-06T13:23:20.775Z,45.00
2019-05-06T13:25:43.039Z,44.49
2019-05-06T13:28:07.690Z,41.61
2019-05-06T13:30:34.479Z,44.64
2019-05-06T13:33:06.353Z,40.78
2019-05-06T13:35:33.124Z,42.90
2019-05-06T13:37:59.866Z,44.63
2019-05-06T13:40:27.217Z,47.36
2019-05-06T13:43:13.514Z,47.32
2019-05-06T13:45:41.962Z,45.30
2019-05-06T13:48:13.279Z,44.33
2019-05-06T13:50:39.325Z,43.10
2019-05-06T13:53:11.439Z,45.00
2019-05-06T13:55:32.898Z,41.86
2019-05-06T13:57:59.654Z,44.05
2019-05-06T14:00:26.390Z,43.76
2019-05-06T14:02:54.934Z,44.01
2019-05-06T14:05:21.727Z,45.02
2019-05-06T14:07:48.494Z,45.85
2019-05-06T14:10:15.226Z,41.85
2019-05-06T14:12:42.606Z,42.74
2019-05-06T14:15:08.696Z,44.34
2019-05-06T14:17:35.473Z,42.04
2019-05-06T14:20:02.774Z,42.19
2019-05-06T14:22:29.003Z,42.21
2019-05-06T14:25:07.358Z,42.90
2019-05-06T14:27:34.074Z,41.65
2019-05-06T14:30:05.328Z,39.57
2019-05-06T14:32:32.823Z,40.48
2019-05-06T14:34:58.819Z,42.00
2019-05-06T14:37:25.653Z,44.53
2019-05-06T14:39:58.102Z,45.87
2019-05-06T14:42:19.070Z,42.11
2019-05-06T14:44:45.818Z,42.55
2019-05-06T14:47:18.322Z,41.60
2019-05-06T14:49:45.173Z,45.83
2019-05-06T14:52:13.134Z,42.07
2019-05-06T14:54:55.662Z,44.66
2019-05-06T14:57:23.348Z,43.43
2019-05-06T14:59:51.948Z,41.19
2019-05-06T15:02:16.895Z,39.16
2019-05-06T15:04:43.764Z,40.03
2019-05-06T15:07:12.536Z,40.76
2019-05-06T15:09:52.192Z,41.70
2019-05-06T15:12:03.939Z,41.51
2019-05-06T15:14:32.887Z,39.14
2019-05-06T15:16:58.161Z,39.54
2019-05-06T15:19:24.883Z,37.51
2019-05-06T15:21:53.146Z,38.27
2019-05-06T15:24:21.271Z,39.84
2019-05-06T15:26:45.305Z,40.33
2019-05-06T15:29:12.665Z,38.87
2019-05-06T15:31:45.699Z,42.61
2019-05-06T15:34:13.106Z,39.44
2019-05-06T15:36:44.730Z,38.99
2019-05-06T15:39:13.201Z,38.42
2019-05-06T15:41:38.210Z,39.77
2019-05-06T15:44:04.940Z,41.96
2019-05-06T15:46:32.290Z,44.49
2019-05-06T15:48:58.401Z,43.49
2019-05-06T15:51:30.854Z,41.93
2019-05-06T15:53:57.641Z,43.50
2019-05-06T15:56:24.399Z,44.67
2019-05-06T15:58:51.158Z,43.82
2019-05-06T16:01:17.914Z,42.19
2019-05-06T16:03:44.728Z,43.17
2019-05-06T16:06:12.412Z,43.15
2019-05-06T16:08:38.224Z,45.15
2019-05-06T16:11:04.965Z,44.51
2019-05-06T16:13:32.047Z,45.04
2019-05-06T16:15:58.426Z,44.46
2019-05-06T16:18:25.271Z,44.18
2019-05-06T16:20:52.142Z,45.34
2019-05-06T16:23:24.011Z,44.91
2019-05-06T16:25:52.412Z,46.55
2019-05-06T16:28:17.537Z,44.96
2019-05-06T16:30:44.282Z,45.20
2019-05-06T16:33:12.167Z,45.65
2019-05-06T16:35:37.757Z,44.53
2019-05-06T16:38:04.505Z,44.35
2019-05-06T16:40:33.503Z,46.24
2019-05-06T16:42:57.976Z,45.32
2019-05-06T16:45:24.722Z,45.68
2019-05-06T16:47:52.426Z,51.62
2019-05-06T16:50:18.226Z,47.91
2019-05-06T16:52:45.582Z,46.57
2019-05-06T16:55:14.182Z,46.45
2019-05-06T16:57:42.843Z,46.20
2019-05-06T17:00:08.802Z,46.05
2019-05-06T17:02:41.991Z,46.75
2019-05-06T17:05:15.094Z,44.90
2019-05-06T17:07:42.258Z,47.67
2019-05-06T17:10:07.894Z,47.93
2019-05-06T17:12:34.631Z,47.53
2019-05-06T17:15:03.240Z,43.82
2019-05-06T17:17:39.690Z,43.54
2019-05-06T17:19:54.959Z,46.57
2019-05-06T17:22:22.955Z,45.53
2019-05-06T17:24:48.832Z,44.37
2019-05-06T17:27:15.277Z,44.68
2019-05-06T17:29:48.035Z,45.06
2019-05-06T17:32:24.712Z,43.99
2019-05-06T17:34:52.883Z,45.94
2019-05-06T17:37:25.218Z,47.42
2019-05-06T17:40:06.328Z,46.21
2019-05-06T17:42:18.767Z,44.97
2019-05-06T17:44:46.559Z,45.79
2019-05-06T17:47:22.817Z,45.94
2019-05-06T17:49:47.710Z,46.21
2019-05-06T17:52:17.706Z,47.29
2019-05-06T17:54:44.567Z,46.11
2019-05-06T17:57:12.298Z,46.57
2019-05-06T17:59:38.153Z,46.63
2019-05-06T18:02:07.383Z,46.84
2019-05-06T18:04:34.499Z,47.26
2019-05-06T18:07:00.835Z,46.50
2019-05-06T18:09:27.598Z,47.49
2019-05-06T18:11:59.047Z,47.38
2019-05-06T18:14:23.046Z,48.04
2019-05-06T18:16:47.853Z,47.26
2019-05-06T18:19:14.615Z,46.21
2019-05-06T18:21:41.354Z,46.96
2019-05-06T18:24:09.897Z,47.14
2019-05-06T18:26:35.090Z,48.57
2019-05-06T18:29:01.841Z,47.95
2019-05-06T18:31:28.574Z,47.58
2019-05-06T18:33:55.306Z,48.09
2019-05-06T18:36:22.675Z,50.13
2019-05-06T18:38:48.771Z,51.59
2019-05-06T18:41:15.558Z,54.03
2019-05-06T18:43:42.409Z,53.50
2019-05-06T18:46:09.018Z,54.47
2019-05-06T18:48:35.747Z,54.67
2019-05-06T18:51:03.159Z,55.80
2019-05-06T18:53:29.437Z,55.54
2019-05-06T18:55:56.168Z,56.30
2019-05-06T18:58:22.899Z,54.33
2019-05-06T19:00:49.650Z,56.32
2019-05-06T19:03:16.365Z,55.85
2019-05-06T19:05:43.122Z,58.94
2019-05-06T19:08:17.721Z,58.20
2019-05-06T19:10:44.554Z,56.53
2019-05-06T19:13:12.652Z,58.80
2019-05-06T19:15:38.225Z,58.29
2019-05-06T19:18:04.963Z,59.39
2019-05-06T19:20:33.831Z,60.92
2019-05-06T19:22:58.514Z,62.22
2019-05-06T19:25:26.575Z,60.51
2019-05-06T19:27:53.115Z,59.25
2019-05-06T19:30:18.986Z,58.41
2019-05-06T19:32:45.743Z,56.98
2019-05-06T19:35:13.226Z,56.53
2019-05-06T19:37:39.346Z,55.62
2019-05-06T19:40:06.098Z,54.18
2019-05-06T19:42:46.246Z,55.01
2019-05-06T19:44:59.563Z,56.00
2019-05-06T19:47:26.374Z,56.66
2019-05-06T19:49:53.371Z,57.13
2019-05-06T19:52:19.867Z,57.79
2019-05-06T19:54:46.587Z,55.96
2019-05-06T19:57:15.835Z,56.86
2019-05-06T19:59:42.282Z,56.28
2019-05-06T20:02:06.926Z,56.33
2019-05-06T20:04:33.677Z,56.82
2019-05-06T20:07:05.370Z,57.10
2019-05-06T20:09:42.526Z,58.17
2019-05-06T20:12:12.274Z,58.59
2019-05-06T20:14:37.348Z,57.12
2019-05-06T20:17:04.219Z,58.52
2019-05-06T20:19:33.691Z,58.49
2019-05-06T20:21:57.666Z,60.21
2019-05-06T20:24:24.382Z,59.64
2019-05-06T20:26:52.714Z,60.45
2019-05-06T20:29:17.866Z,60.30
2019-05-06T20:31:44.613Z,59.98
2019-05-06T20:34:12.870Z,57.96
2019-05-06T20:36:38.101Z,62.33
2019-05-06T20:39:05.778Z,61.56
2019-05-06T20:41:32.947Z,61.90
2019-05-06T20:43:59.300Z,61.42
2019-05-06T20:46:26.043Z,62.62
2019-05-06T20:48:53.024Z,62.50
2019-05-06T20:51:21.805Z,63.38
2019-05-06T20:53:46.217Z,62.51
2019-05-06T20:56:12.953Z,59.90
2019-05-06T20:58:41.851Z,60.73
2019-05-06T21:01:06.460Z,61.43
2019-05-06T21:03:33.202Z,60.95
2019-05-06T21:06:01.964Z,60.72
2019-05-06T21:08:26.666Z,62.83
2019-05-06T21:10:53.442Z,63.73
2019-05-06T21:13:29.685Z,66.28
2019-05-06T21:15:46.947Z,66.45
2019-05-06T21:18:13.745Z,66.70
2019-05-06T21:20:40.498Z,69.40
2019-05-06T21:23:07.255Z,69.26
2019-05-06T21:25:34.026Z,68.59
2019-05-06T21:28:02.937Z,67.83
2019-05-06T21:30:27.471Z,65.79
2019-05-06T21:32:54.187Z,66.69
2019-05-06T21:35:22.200Z,66.45
2019-05-06T21:37:47.671Z,66.77
2019-05-06T21:40:14.393Z,64.73
2019-05-06T21:42:43.170Z,66.15
2019-05-06T21:45:07.846Z,65.77
2019-05-06T21:47:34.562Z,67.57
2019-05-06T21:50:01.300Z,67.51
2019-05-06T21:52:39.256Z,67.20
2019-05-06T21:54:54.854Z,66.99
2019-05-06T21:57:21.860Z,67.47
2019-05-06T21:59:48.470Z,68.22
2019-05-06T22:02:15.554Z,67.78
2019-05-06T22:04:43.329Z,67.73
2019-05-06T22:07:09.089Z,68.28
2019-05-06T22:09:35.814Z,69.06
2019-05-06T22:12:02.583Z,68.47
2019-05-06T22:14:29.322Z,69.48
2019-05-06T22:16:56.062Z,68.00
2019-05-06T22:19:22.778Z,68.90
2019-05-06T22:21:55.270Z,69.03
2019-05-06T22:24:25.086Z,69.12
2019-05-06T22:26:52.127Z,70.06
2019-05-06T22:29:18.814Z,71.27
2019-05-06T22:31:45.555Z,70.79
2019-05-06T22:34:13.383Z,70.51
2019-05-06T22:36:39.063Z,70.57
2019-05-06T22:39:05.839Z,69.01
2019-05-06T22:41:32.781Z,70.85
2019-05-06T22:44:12.433Z,71.72
2019-05-06T22:46:26.094Z,71.44
2019-05-06T22:48:54.505Z,73.52
2019-05-06T22:51:19.582Z,72.61
2019-05-06T22:53:46.323Z,72.60
2019-05-06T22:56:14.044Z,72.03
2019-05-06T22:58:42.797Z,72.44
2019-05-06T23:01:27.138Z,72.38
2019-05-06T23:03:53.887Z,73.43
2019-05-06T23:06:21.965Z,73.44
2019-05-06T23:08:47.382Z,73.78
2019-05-06T23:11:15.437Z,74.39
2019-05-06T23:13:41.887Z,73.85
2019-05-06T23:16:07.577Z,74.24
2019-05-06T23:18:34.314Z,73.78
2019-05-06T23:21:02.471Z,73.76
2019-05-06T23:23:27.782Z,73.30
2019-05-06T23:26:02.239Z,73.18
2019-05-06T23:28:27.054Z,73.31
2019-05-06T23:30:53.778Z,71.63
2019-05-06T23:33:22.830Z,75.25
2019-05-06T23:35:47.275Z,75.33
2019-05-06T23:38:25.698Z,75.54
2019-05-06T23:41:04.055Z,75.35
2019-05-06T23:43:42.900Z,74.99
2019-05-06T23:46:22.710Z,75.13
2019-05-06T23:48:59.228Z,75.12
2019-05-06T23:51:37.523Z,75.84
2019-05-06T23:54:15.894Z,74.74
2019-05-06T23:56:43.716Z,75.50
2019-05-06T23:59:09.502Z,75.50
